sensor_id;sensor_type;location;lat;lon;timestamp;P1;durP1;ratioP1;P2;durP2;ratioP2
26864;SDS011;40618;51.166;10.322;2022-07-29T00:02:19;6.30;;;1.60;;
26864;SDS011;40618;51.166;10.322;2022-07-29T00:04:57;4.07;;;0.90;;
26864;SDS011;40618;51.166;10.322;2022-07-29T00:07:35;4.05;;;0.95;;
26864;SDS011;40618;51.166;10.322;2022-07-29T00:10:14;3.17;;;1.17;;
26864;SDS011;40618;51.166;10.322;2022-07-29T00:12:52;3.17;;;0.82;;
26864;SDS011;40618;51.166;10.322;2022-07-29T00:15:31;5.57;;;0.93;;
26864;SDS011;40618;51.166;10.322;2022-07-29T00:18:09;1.70;;;0.80;;
26864;SDS011;40618;51.166;10.322;2022-07-29T00:20:47;2.83;;;0.80;;
26864;SDS011;40618;51.166;10.322;2022-07-29T00:23:26;4.22;;;1.20;;
26864;SDS011;40618;51.166;10.322;2022-07-29T00:26:06;3.05;;;0.90;;
26864;SDS011;40618;51.166;10.322;2022-07-29T00:28:45;2.53;;;0.93;;
26864;SDS011;40618;51.166;10.322;2022-07-29T00:31:23;3.40;;;1.02;;
26864;SDS011;40618;51.166;10.322;2022-07-29T00:34:01;2.75;;;0.90;;
26864;SDS011;40618;51.166;10.322;2022-07-29T00:36:39;3.13;;;0.82;;
26864;SDS011;40618;51.166;10.322;2022-07-29T00:39:17;2.65;;;1.00;;
26864;SDS011;40618;51.166;10.322;2022-07-29T00:41:55;3.92;;;0.82;;
26864;SDS011;40618;51.166;10.322;2022-07-29T00:44:37;5.45;;;0.85;;
26864;SDS011;40618;51.166;10.322;2022-07-29T00:47:17;2.63;;;1.15;;
26864;SDS011;40618;51.166;10.322;2022-07-29T00:49:55;7.05;;;1.15;;
26864;SDS011;40618;51.166;10.322;2022-07-29T00:52:35;3.85;;;1.00;;
26864;SDS011;40618;51.166;10.322;2022-07-29T00:55:16;2.65;;;1.00;;
26864;SDS011;40618;51.166;10.322;2022-07-29T00:57:54;4.15;;;1.05;;
26864;SDS011;40618;51.166;10.322;2022-07-29T01:00:35;2.55;;;1.00;;
26864;SDS011;40618;51.166;10.322;2022-07-29T01:03:14;4.50;;;1.10;;
26864;SDS011;40618;51.166;10.322;2022-07-29T01:05:52;2.75;;;0.75;;
26864;SDS011;40618;51.166;10.322;2022-07-29T01:08:31;1.40;;;0.95;;
26864;SDS011;40618;51.166;10.322;2022-07-29T01:11:10;1.10;;;0.88;;
26864;SDS011;40618;51.166;10.322;2022-07-29T01:13:50;2.75;;;0.88;;
26864;SDS011;40618;51.166;10.322;2022-07-29T01:16:32;4.77;;;0.80;;
26864;SDS011;40618;51.166;10.322;2022-07-29T01:19:44;3.25;;;1.00;;
26864;SDS011;40618;51.166;10.322;2022-07-29T01:29:01;3.10;;;0.68;;
26864;SDS011;40618;51.166;10.322;2022-07-29T01:32:06;2.53;;;0.73;;
26864;SDS011;40618;51.166;10.322;2022-07-29T01:37:52;4.57;;;1.10;;
26864;SDS011;40618;51.166;10.322;2022-07-29T01:43:50;2.55;;;1.05;;
26864;SDS011;40618;51.166;10.322;2022-07-29T01:46:36;3.72;;;1.30;;
26864;SDS011;40618;51.166;10.322;2022-07-29T01:49:22;2.90;;;0.88;;
26864;SDS011;40618;51.166;10.322;2022-07-29T01:52:07;1.63;;;0.98;;
26864;SDS011;40618;51.166;10.322;2022-07-29T01:54:58;1.70;;;0.82;;
26864;SDS011;40618;51.166;10.322;2022-07-29T01:57:44;2.00;;;0.95;;
26864;SDS011;40618;51.166;10.322;2022-07-29T02:00:25;3.88;;;0.82;;
26864;SDS011;40618;51.166;10.322;2022-07-29T02:03:07;4.50;;;1.10;;
26864;SDS011;40618;51.166;10.322;2022-07-29T02:05:48;4.03;;;1.23;;
26864;SDS011;40618;51.166;10.322;2022-07-29T02:08:30;2.30;;;0.88;;
26864;SDS011;40618;51.166;10.322;2022-07-29T02:11:11;2.92;;;0.90;;
26864;SDS011;40618;51.166;10.322;2022-07-29T02:13:49;3.53;;;0.73;;
26864;SDS011;40618;51.166;10.322;2022-07-29T02:16:32;2.80;;;0.75;;
26864;SDS011;40618;51.166;10.322;2022-07-29T02:19:13;2.08;;;1.15;;
26864;SDS011;40618;51.166;10.322;2022-07-29T02:21:54;9.27;;;1.17;;
26864;SDS011;40618;51.166;10.322;2022-07-29T02:24:35;3.92;;;0.98;;
26864;SDS011;40618;51.166;10.322;2022-07-29T02:27:17;2.38;;;1.00;;
26864;SDS011;40618;51.166;10.322;2022-07-29T02:32:38;6.20;;;1.05;;
26864;SDS011;40618;51.166;10.322;2022-07-29T02:35:23;2.90;;;1.08;;
26864;SDS011;40618;51.166;10.322;2022-07-29T02:38:02;1.73;;;0.95;;
26864;SDS011;40618;51.166;10.322;2022-07-29T02:41:03;4.32;;;1.13;;
26864;SDS011;40618;51.166;10.322;2022-07-29T02:43:48;2.92;;;0.93;;
26864;SDS011;40618;51.166;10.322;2022-07-29T02:46:41;3.55;;;1.20;;
26864;SDS011;40618;51.166;10.322;2022-07-29T02:58:44;3.10;;;1.00;;
26864;SDS011;40618;51.166;10.322;2022-07-29T03:01:31;2.80;;;0.93;;
26864;SDS011;40618;51.166;10.322;2022-07-29T03:04:12;2.35;;;0.90;;
26864;SDS011;40618;51.166;10.322;2022-07-29T03:06:53;2.08;;;0.75;;
26864;SDS011;40618;51.166;10.322;2022-07-29T03:09:37;2.45;;;0.93;;
26864;SDS011;40618;51.166;10.322;2022-07-29T03:12:17;2.60;;;1.05;;
26864;SDS011;40618;51.166;10.322;2022-07-29T03:14:56;5.10;;;1.10;;
26864;SDS011;40618;51.166;10.322;2022-07-29T03:17:36;1.47;;;0.90;;
26864;SDS011;40618;51.166;10.322;2022-07-29T03:20:16;3.80;;;1.17;;
26864;SDS011;40618;51.166;10.322;2022-07-29T03:22:55;2.05;;;0.95;;
26864;SDS011;40618;51.166;10.322;2022-07-29T03:25:33;3.72;;;1.30;;
26864;SDS011;40618;51.166;10.322;2022-07-29T03:28:11;3.55;;;1.15;;
26864;SDS011;40618;51.166;10.322;2022-07-29T03:30:52;2.72;;;1.02;;
26864;SDS011;40618;51.166;10.322;2022-07-29T03:33:31;1.15;;;0.70;;
26864;SDS011;40618;51.166;10.322;2022-07-29T03:36:09;2.35;;;1.02;;
26864;SDS011;40618;51.166;10.322;2022-07-29T03:38:47;1.92;;;1.10;;
26864;SDS011;40618;51.166;10.322;2022-07-29T03:41:27;2.90;;;1.20;;
26864;SDS011;40618;51.166;10.322;2022-07-29T03:44:07;2.15;;;1.08;;
26864;SDS011;40618;51.166;10.322;2022-07-29T03:46:47;3.77;;;1.53;;
26864;SDS011;40618;51.166;10.322;2022-07-29T03:49:28;1.88;;;0.93;;
26864;SDS011;40618;51.166;10.322;2022-07-29T03:52:08;2.13;;;1.00;;
26864;SDS011;40618;51.166;10.322;2022-07-29T03:54:47;3.50;;;1.30;;
26864;SDS011;40618;51.166;10.322;2022-07-29T03:57:27;3.53;;;0.80;;
26864;SDS011;40618;51.166;10.322;2022-07-29T04:00:08;1.73;;;0.77;;
26864;SDS011;40618;51.166;10.322;2022-07-29T04:02:47;2.37;;;1.17;;
26864;SDS011;40618;51.166;10.322;2022-07-29T04:05:26;2.85;;;1.02;;
26864;SDS011;40618;51.166;10.322;2022-07-29T04:08:04;1.52;;;0.80;;
26864;SDS011;40618;51.166;10.322;2022-07-29T04:10:43;2.00;;;1.00;;
26864;SDS011;40618;51.166;10.322;2022-07-29T04:13:21;3.38;;;1.15;;
26864;SDS011;40618;51.166;10.322;2022-07-29T04:15:59;2.08;;;0.90;;
26864;SDS011;40618;51.166;10.322;2022-07-29T04:18:38;1.70;;;0.60;;
26864;SDS011;40618;51.166;10.322;2022-07-29T04:21:16;5.90;;;0.80;;
26864;SDS011;40618;51.166;10.322;2022-07-29T04:23:54;2.95;;;1.08;;
26864;SDS011;40618;51.166;10.322;2022-07-29T04:26:32;3.72;;;0.75;;
26864;SDS011;40618;51.166;10.322;2022-07-29T04:29:12;3.58;;;0.88;;
26864;SDS011;40618;51.166;10.322;2022-07-29T04:31:51;1.20;;;0.70;;
26864;SDS011;40618;51.166;10.322;2022-07-29T04:34:29;2.13;;;1.05;;
26864;SDS011;40618;51.166;10.322;2022-07-29T04:37:07;1.85;;;1.08;;
26864;SDS011;40618;51.166;10.322;2022-07-29T04:39:45;2.47;;;0.80;;
26864;SDS011;40618;51.166;10.322;2022-07-29T04:42:24;1.27;;;0.82;;
26864;SDS011;40618;51.166;10.322;2022-07-29T04:45:03;1.55;;;0.90;;
26864;SDS011;40618;51.166;10.322;2022-07-29T04:47:43;2.42;;;0.85;;
26864;SDS011;40618;51.166;10.322;2022-07-29T04:50:21;1.85;;;1.10;;
26864;SDS011;40618;51.166;10.322;2022-07-29T04:52:59;1.67;;;0.90;;
26864;SDS011;40618;51.166;10.322;2022-07-29T04:55:37;1.73;;;1.20;;
26864;SDS011;40618;51.166;10.322;2022-07-29T04:58:16;3.45;;;1.17;;
26864;SDS011;40618;51.166;10.322;2022-07-29T05:00:54;2.95;;;1.38;;
26864;SDS011;40618;51.166;10.322;2022-07-29T05:03:32;3.65;;;0.90;;
26864;SDS011;40618;51.166;10.322;2022-07-29T05:06:10;0.80;;;0.80;;
26864;SDS011;40618;51.166;10.322;2022-07-29T05:08:49;2.38;;;1.10;;
26864;SDS011;40618;51.166;10.322;2022-07-29T05:11:27;3.33;;;1.17;;
26864;SDS011;40618;51.166;10.322;2022-07-29T05:14:06;2.10;;;0.90;;
26864;SDS011;40618;51.166;10.322;2022-07-29T05:16:45;5.63;;;1.08;;
26864;SDS011;40618;51.166;10.322;2022-07-29T05:19:23;3.83;;;1.30;;
26864;SDS011;40618;51.166;10.322;2022-07-29T05:22:01;4.68;;;1.38;;
26864;SDS011;40618;51.166;10.322;2022-07-29T05:24:39;2.70;;;1.20;;
26864;SDS011;40618;51.166;10.322;2022-07-29T05:27:18;2.40;;;1.20;;
26864;SDS011;40618;51.166;10.322;2022-07-29T05:29:56;4.90;;;1.10;;
26864;SDS011;40618;51.166;10.322;2022-07-29T05:32:34;3.15;;;1.20;;
26864;SDS011;40618;51.166;10.322;2022-07-29T05:35:13;2.78;;;1.25;;
26864;SDS011;40618;51.166;10.322;2022-07-29T05:37:52;5.25;;;1.75;;
26864;SDS011;40618;51.166;10.322;2022-07-29T05:40:30;1.85;;;1.00;;
26864;SDS011;40618;51.166;10.322;2022-07-29T05:43:09;2.92;;;1.23;;
26864;SDS011;40618;51.166;10.322;2022-07-29T05:45:47;2.38;;;1.10;;
26864;SDS011;40618;51.166;10.322;2022-07-29T05:48:26;2.17;;;1.02;;
26864;SDS011;40618;51.166;10.322;2022-07-29T05:51:05;3.08;;;1.02;;
26864;SDS011;40618;51.166;10.322;2022-07-29T05:53:43;4.43;;;1.17;;
26864;SDS011;40618;51.166;10.322;2022-07-29T05:56:21;2.03;;;0.95;;
26864;SDS011;40618;51.166;10.322;2022-07-29T05:59:00;2.42;;;1.13;;
26864;SDS011;40618;51.166;10.322;2022-07-29T06:01:38;3.15;;;1.20;;
26864;SDS011;40618;51.166;10.322;2022-07-29T06:04:16;5.22;;;1.30;;
26864;SDS011;40618;51.166;10.322;2022-07-29T06:06:56;1.75;;;1.15;;
26864;SDS011;40618;51.166;10.322;2022-07-29T06:09:33;2.88;;;1.27;;
26864;SDS011;40618;51.166;10.322;2022-07-29T06:12:12;2.28;;;0.90;;
26864;SDS011;40618;51.166;10.322;2022-07-29T06:14:51;3.58;;;1.05;;
26864;SDS011;40618;51.166;10.322;2022-07-29T06:17:30;5.45;;;1.40;;
26864;SDS011;40618;51.166;10.322;2022-07-29T06:20:09;7.78;;;1.45;;
26864;SDS011;40618;51.166;10.322;2022-07-29T06:22:48;3.22;;;1.13;;
26864;SDS011;40618;51.166;10.322;2022-07-29T06:25:27;4.28;;;1.10;;
26864;SDS011;40618;51.166;10.322;2022-07-29T06:28:06;1.90;;;1.00;;
26864;SDS011;40618;51.166;10.322;2022-07-29T06:30:44;4.75;;;1.20;;
26864;SDS011;40618;51.166;10.322;2022-07-29T06:33:23;7.70;;;1.27;;
26864;SDS011;40618;51.166;10.322;2022-07-29T06:36:03;3.47;;;0.93;;
26864;SDS011;40618;51.166;10.322;2022-07-29T06:38:43;2.42;;;1.20;;
26864;SDS011;40618;51.166;10.322;2022-07-29T06:41:27;2.28;;;1.08;;
26864;SDS011;40618;51.166;10.322;2022-07-29T06:44:06;15.50;;;1.67;;
26864;SDS011;40618;51.166;10.322;2022-07-29T06:46:44;7.22;;;1.17;;
26864;SDS011;40618;51.166;10.322;2022-07-29T06:49:26;0.90;;;0.70;;
26864;SDS011;40618;51.166;10.322;2022-07-29T06:52:04;2.80;;;0.93;;
26864;SDS011;40618;51.166;10.322;2022-07-29T06:54:42;3.70;;;1.27;;
26864;SDS011;40618;51.166;10.322;2022-07-29T06:57:25;4.85;;;1.38;;
26864;SDS011;40618;51.166;10.322;2022-07-29T07:00:03;3.33;;;1.00;;
26864;SDS011;40618;51.166;10.322;2022-07-29T07:02:43;4.73;;;1.43;;
26864;SDS011;40618;51.166;10.322;2022-07-29T07:05:23;4.63;;;1.17;;
26864;SDS011;40618;51.166;10.322;2022-07-29T07:08:01;1.70;;;1.13;;
26864;SDS011;40618;51.166;10.322;2022-07-29T07:10:40;6.85;;;1.27;;
26864;SDS011;40618;51.166;10.322;2022-07-29T07:13:19;4.35;;;1.13;;
26864;SDS011;40618;51.166;10.322;2022-07-29T07:15:57;6.50;;;1.38;;
26864;SDS011;40618;51.166;10.322;2022-07-29T07:18:35;5.10;;;1.27;;
26864;SDS011;40618;51.166;10.322;2022-07-29T07:21:13;2.97;;;1.17;;
26864;SDS011;40618;51.166;10.322;2022-07-29T07:23:55;3.38;;;1.13;;
26864;SDS011;40618;51.166;10.322;2022-07-29T07:26:33;2.88;;;1.20;;
26864;SDS011;40618;51.166;10.322;2022-07-29T07:29:11;5.35;;;1.13;;
26864;SDS011;40618;51.166;10.322;2022-07-29T07:31:50;5.15;;;1.17;;
26864;SDS011;40618;51.166;10.322;2022-07-29T07:34:34;2.40;;;1.25;;
26864;SDS011;40618;51.166;10.322;2022-07-29T07:37:15;3.28;;;1.20;;
26864;SDS011;40618;51.166;10.322;2022-07-29T07:39:53;3.42;;;1.05;;
26864;SDS011;40618;51.166;10.322;2022-07-29T07:42:31;3.58;;;1.10;;
26864;SDS011;40618;51.166;10.322;2022-07-29T07:45:10;3.50;;;1.00;;
26864;SDS011;40618;51.166;10.322;2022-07-29T07:47:52;5.00;;;1.10;;
26864;SDS011;40618;51.166;10.322;2022-07-29T07:50:30;4.35;;;1.45;;
26864;SDS011;40618;51.166;10.322;2022-07-29T07:53:09;6.78;;;1.90;;
26864;SDS011;40618;51.166;10.322;2022-07-29T07:55:47;4.45;;;1.45;;
26864;SDS011;40618;51.166;10.322;2022-07-29T07:58:44;4.38;;;1.10;;
26864;SDS011;40618;51.166;10.322;2022-07-29T08:01:22;7.15;;;1.48;;
26864;SDS011;40618;51.166;10.322;2022-07-29T08:04:01;5.28;;;1.45;;
26864;SDS011;40618;51.166;10.322;2022-07-29T08:06:39;3.10;;;1.02;;
26864;SDS011;40618;51.166;10.322;2022-07-29T08:09:17;3.13;;;1.23;;
26864;SDS011;40618;51.166;10.322;2022-07-29T08:12:05;2.45;;;1.25;;
26864;SDS011;40618;51.166;10.322;2022-07-29T08:14:44;3.20;;;1.25;;
26864;SDS011;40618;51.166;10.322;2022-07-29T08:17:22;4.63;;;1.50;;
26864;SDS011;40618;51.166;10.322;2022-07-29T08:20:00;3.75;;;1.33;;
26864;SDS011;40618;51.166;10.322;2022-07-29T08:22:39;7.30;;;1.48;;
26864;SDS011;40618;51.166;10.322;2022-07-29T08:25:17;7.22;;;1.50;;
26864;SDS011;40618;51.166;10.322;2022-07-29T08:27:58;4.97;;;1.10;;
26864;SDS011;40618;51.166;10.322;2022-07-29T08:30:36;3.63;;;1.35;;
26864;SDS011;40618;51.166;10.322;2022-07-29T08:33:14;4.35;;;1.50;;
26864;SDS011;40618;51.166;10.322;2022-07-29T08:35:53;4.28;;;1.50;;
26864;SDS011;40618;51.166;10.322;2022-07-29T08:38:31;3.47;;;1.20;;
26864;SDS011;40618;51.166;10.322;2022-07-29T08:41:10;8.15;;;1.30;;
26864;SDS011;40618;51.166;10.322;2022-07-29T08:43:48;5.57;;;1.38;;
26864;SDS011;40618;51.166;10.322;2022-07-29T08:46:28;4.75;;;1.30;;
26864;SDS011;40618;51.166;10.322;2022-07-29T08:49:06;4.20;;;1.30;;
26864;SDS011;40618;51.166;10.322;2022-07-29T08:51:44;6.65;;;1.60;;
26864;SDS011;40618;51.166;10.322;2022-07-29T08:54:25;2.88;;;1.27;;
26864;SDS011;40618;51.166;10.322;2022-07-29T08:57:05;4.00;;;1.30;;
26864;SDS011;40618;51.166;10.322;2022-07-29T08:59:45;3.50;;;1.15;;
26864;SDS011;40618;51.166;10.322;2022-07-29T09:02:28;3.05;;;1.40;;
26864;SDS011;40618;51.166;10.322;2022-07-29T09:05:13;3.13;;;1.42;;
26864;SDS011;40618;51.166;10.322;2022-07-29T09:07:52;7.32;;;1.33;;
26864;SDS011;40618;51.166;10.322;2022-07-29T09:10:31;5.00;;;1.73;;
26864;SDS011;40618;51.166;10.322;2022-07-29T09:13:12;1.75;;;1.00;;
26864;SDS011;40618;51.166;10.322;2022-07-29T09:15:50;5.25;;;1.45;;
26864;SDS011;40618;51.166;10.322;2022-07-29T09:19:02;7.43;;;1.60;;
26864;SDS011;40618;51.166;10.322;2022-07-29T09:21:36;8.18;;;1.90;;
26864;SDS011;40618;51.166;10.322;2022-07-29T09:27:22;10.85;;;1.60;;
26864;SDS011;40618;51.166;10.322;2022-07-29T09:30:09;8.88;;;1.27;;
26864;SDS011;40618;51.166;10.322;2022-07-29T09:33:03;2.70;;;1.20;;
26864;SDS011;40618;51.166;10.322;2022-07-29T09:35:42;3.88;;;1.38;;
26864;SDS011;40618;51.166;10.322;2022-07-29T09:38:33;4.20;;;1.33;;
26864;SDS011;40618;51.166;10.322;2022-07-29T09:41:14;5.13;;;1.35;;
26864;SDS011;40618;51.166;10.322;2022-07-29T09:43:56;3.97;;;1.13;;
26864;SDS011;40618;51.166;10.322;2022-07-29T09:46:36;8.88;;;1.67;;
26864;SDS011;40618;51.166;10.322;2022-07-29T09:49:14;3.28;;;1.60;;
26864;SDS011;40618;51.166;10.322;2022-07-29T09:51:59;1.85;;;1.25;;
26864;SDS011;40618;51.166;10.322;2022-07-29T09:54:43;7.32;;;1.30;;
26864;SDS011;40618;51.166;10.322;2022-07-29T09:57:24;8.18;;;1.58;;
26864;SDS011;40618;51.166;10.322;2022-07-29T10:00:08;4.32;;;1.23;;
26864;SDS011;40618;51.166;10.322;2022-07-29T10:02:48;5.55;;;1.25;;
26864;SDS011;40618;51.166;10.322;2022-07-29T10:05:27;4.45;;;1.90;;
26864;SDS011;40618;51.166;10.322;2022-07-29T10:08:12;6.05;;;1.48;;
26864;SDS011;40618;51.166;10.322;2022-07-29T10:11:11;10.50;;;1.48;;
26864;SDS011;40618;51.166;10.322;2022-07-29T10:13:54;2.08;;;1.50;;
26864;SDS011;40618;51.166;10.322;2022-07-29T10:16:32;6.60;;;1.25;;
26864;SDS011;40618;51.166;10.322;2022-07-29T10:19:11;2.03;;;1.20;;
26864;SDS011;40618;51.166;10.322;2022-07-29T10:21:51;3.67;;;1.63;;
26864;SDS011;40618;51.166;10.322;2022-07-29T10:24:34;4.20;;;1.88;;
26864;SDS011;40618;51.166;10.322;2022-07-29T10:29:53;10.13;;;1.60;;
26864;SDS011;40618;51.166;10.322;2022-07-29T10:35:44;2.72;;;1.58;;
26864;SDS011;40618;51.166;10.322;2022-07-29T10:42:30;2.65;;;1.63;;
26864;SDS011;40618;51.166;10.322;2022-07-29T10:47:48;4.40;;;2.22;;
26864;SDS011;40618;51.166;10.322;2022-07-29T10:56:30;1.63;;;1.25;;
26864;SDS011;40618;51.166;10.322;2022-07-29T11:01:59;2.95;;;1.48;;
26864;SDS011;40618;51.166;10.322;2022-07-29T11:07:36;2.47;;;1.58;;
26864;SDS011;40618;51.166;10.322;2022-07-29T11:10:22;3.03;;;1.33;;
26864;SDS011;40618;51.166;10.322;2022-07-29T11:13:07;1.85;;;1.38;;
26864;SDS011;40618;51.166;10.322;2022-07-29T11:15:52;2.45;;;1.40;;
26864;SDS011;40618;51.166;10.322;2022-07-29T11:18:32;12.32;;;2.05;;
26864;SDS011;40618;51.166;10.322;2022-07-29T11:21:34;3.53;;;1.45;;
26864;SDS011;40618;51.166;10.322;2022-07-29T11:24:33;6.43;;;1.70;;
26864;SDS011;40618;51.166;10.322;2022-07-29T11:27:14;5.57;;;1.67;;
26864;SDS011;40618;51.166;10.322;2022-07-29T11:29:57;4.80;;;1.67;;
26864;SDS011;40618;51.166;10.322;2022-07-29T11:32:40;2.72;;;1.60;;
26864;SDS011;40618;51.166;10.322;2022-07-29T11:35:24;3.33;;;1.67;;
26864;SDS011;40618;51.166;10.322;2022-07-29T11:38:27;2.10;;;1.30;;
26864;SDS011;40618;51.166;10.322;2022-07-29T11:44:03;3.88;;;1.30;;
26864;SDS011;40618;51.166;10.322;2022-07-29T11:46:46;2.55;;;1.50;;
26864;SDS011;40618;51.166;10.322;2022-07-29T11:49:30;3.38;;;1.67;;
26864;SDS011;40618;51.166;10.322;2022-07-29T11:52:10;4.63;;;2.97;;
26864;SDS011;40618;51.166;10.322;2022-07-29T11:54:49;6.18;;;1.90;;
26864;SDS011;40618;51.166;10.322;2022-07-29T11:58:06;2.25;;;1.80;;
26864;SDS011;40618;51.166;10.322;2022-07-29T12:00:46;2.67;;;1.75;;
26864;SDS011;40618;51.166;10.322;2022-07-29T12:03:27;7.50;;;2.25;;
26864;SDS011;40618;51.166;10.322;2022-07-29T12:06:12;7.13;;;2.05;;
26864;SDS011;40618;51.166;10.322;2022-07-29T12:08:54;4.72;;;1.63;;
26864;SDS011;40618;51.166;10.322;2022-07-29T12:11:34;3.83;;;1.40;;
26864;SDS011;40618;51.166;10.322;2022-07-29T12:14:25;1.88;;;1.40;;
26864;SDS011;40618;51.166;10.322;2022-07-29T12:17:07;7.07;;;2.05;;
26864;SDS011;40618;51.166;10.322;2022-07-29T12:20:12;4.63;;;1.63;;
26864;SDS011;40618;51.166;10.322;2022-07-29T12:22:58;3.88;;;1.45;;
26864;SDS011;40618;51.166;10.322;2022-07-29T12:25:45;5.65;;;1.95;;
26864;SDS011;40618;51.166;10.322;2022-07-29T12:28:26;2.70;;;1.60;;
26864;SDS011;40618;51.166;10.322;2022-07-29T12:31:04;6.93;;;1.70;;
26864;SDS011;40618;51.166;10.322;2022-07-29T12:33:44;3.03;;;1.70;;
26864;SDS011;40618;51.166;10.322;2022-07-29T12:36:31;4.40;;;1.90;;
26864;SDS011;40618;51.166;10.322;2022-07-29T12:39:10;3.70;;;1.80;;
26864;SDS011;40618;51.166;10.322;2022-07-29T12:41:49;2.63;;;1.45;;
26864;SDS011;40618;51.166;10.322;2022-07-29T12:44:42;6.00;;;1.77;;
26864;SDS011;40618;51.166;10.322;2022-07-29T12:47:26;7.05;;;2.15;;
26864;SDS011;40618;51.166;10.322;2022-07-29T12:50:12;4.25;;;1.80;;
26864;SDS011;40618;51.166;10.322;2022-07-29T12:53:10;5.25;;;1.80;;
26864;SDS011;40618;51.166;10.322;2022-07-29T12:55:54;2.80;;;1.75;;
26864;SDS011;40618;51.166;10.322;2022-07-29T13:01:18;2.35;;;1.50;;
26864;SDS011;40618;51.166;10.322;2022-07-29T13:03:58;7.20;;;2.05;;
26864;SDS011;40618;51.166;10.322;2022-07-29T13:06:40;3.35;;;1.50;;
26864;SDS011;40618;51.166;10.322;2022-07-29T13:09:35;2.30;;;1.30;;
26864;SDS011;40618;51.166;10.322;2022-07-29T13:12:19;4.68;;;1.80;;
26864;SDS011;40618;51.166;10.322;2022-07-29T13:14:55;4.30;;;1.48;;
26864;SDS011;40618;51.166;10.322;2022-07-29T13:17:33;4.15;;;1.88;;
26864;SDS011;40618;51.166;10.322;2022-07-29T13:20:24;10.73;;;1.92;;
26864;SDS011;40618;51.166;10.322;2022-07-29T13:23:06;3.78;;;1.98;;
26864;SDS011;40618;51.166;10.322;2022-07-29T13:25:44;6.95;;;1.70;;
26864;SDS011;40618;51.166;10.322;2022-07-29T13:28:22;2.30;;;1.58;;
26864;SDS011;40618;51.166;10.322;2022-07-29T13:31:01;4.72;;;1.67;;
26864;SDS011;40618;51.166;10.322;2022-07-29T13:33:39;5.45;;;2.13;;
26864;SDS011;40618;51.166;10.322;2022-07-29T13:36:17;4.05;;;1.80;;
26864;SDS011;40618;51.166;10.322;2022-07-29T13:38:55;3.78;;;1.52;;
26864;SDS011;40618;51.166;10.322;2022-07-29T13:41:33;3.88;;;1.88;;
26864;SDS011;40618;51.166;10.322;2022-07-29T13:44:12;4.00;;;1.63;;
26864;SDS011;40618;51.166;10.322;2022-07-29T13:46:50;5.15;;;1.80;;
26864;SDS011;40618;51.166;10.322;2022-07-29T13:49:29;3.92;;;1.65;;
26864;SDS011;40618;51.166;10.322;2022-07-29T13:52:07;2.92;;;1.83;;
26864;SDS011;40618;51.166;10.322;2022-07-29T13:54:45;1.88;;;1.40;;
26864;SDS011;40618;51.166;10.322;2022-07-29T13:57:24;6.97;;;1.75;;
26864;SDS011;40618;51.166;10.322;2022-07-29T14:00:02;5.35;;;1.55;;
26864;SDS011;40618;51.166;10.322;2022-07-29T14:02:41;2.90;;;1.77;;
26864;SDS011;40618;51.166;10.322;2022-07-29T14:05:20;4.47;;;1.98;;
26864;SDS011;40618;51.166;10.322;2022-07-29T14:07:58;3.53;;;1.83;;
26864;SDS011;40618;51.166;10.322;2022-07-29T14:10:36;1.98;;;1.50;;
26864;SDS011;40618;51.166;10.322;2022-07-29T14:13:14;6.95;;;1.80;;
26864;SDS011;40618;51.166;10.322;2022-07-29T14:16:01;4.13;;;2.30;;
26864;SDS011;40618;51.166;10.322;2022-07-29T14:18:39;4.80;;;1.95;;
26864;SDS011;40618;51.166;10.322;2022-07-29T14:21:18;3.70;;;1.77;;
26864;SDS011;40618;51.166;10.322;2022-07-29T14:23:59;3.28;;;1.50;;
26864;SDS011;40618;51.166;10.322;2022-07-29T14:26:37;2.05;;;1.70;;
26864;SDS011;40618;51.166;10.322;2022-07-29T14:29:15;4.35;;;1.70;;
26864;SDS011;40618;51.166;10.322;2022-07-29T14:31:53;2.30;;;1.58;;
26864;SDS011;40618;51.166;10.322;2022-07-29T14:34:32;2.53;;;1.48;;
26864;SDS011;40618;51.166;10.322;2022-07-29T14:37:11;3.15;;;1.70;;
26864;SDS011;40618;51.166;10.322;2022-07-29T14:39:52;2.33;;;1.65;;
26864;SDS011;40618;51.166;10.322;2022-07-29T14:42:31;2.20;;;1.70;;
26864;SDS011;40618;51.166;10.322;2022-07-29T14:45:09;4.85;;;2.20;;
26864;SDS011;40618;51.166;10.322;2022-07-29T14:47:47;3.85;;;1.65;;
26864;SDS011;40618;51.166;10.322;2022-07-29T14:50:33;5.05;;;1.52;;
26864;SDS011;40618;51.166;10.322;2022-07-29T14:53:11;2.80;;;1.95;;
26864;SDS011;40618;51.166;10.322;2022-07-29T14:55:50;6.38;;;2.10;;
26864;SDS011;40618;51.166;10.322;2022-07-29T14:58:28;10.82;;;2.65;;
26864;SDS011;40618;51.166;10.322;2022-07-29T15:01:06;3.35;;;1.90;;
26864;SDS011;40618;51.166;10.322;2022-07-29T15:03:44;2.53;;;1.50;;
26864;SDS011;40618;51.166;10.322;2022-07-29T15:06:22;8.30;;;2.25;;
26864;SDS011;40618;51.166;10.322;2022-07-29T15:09:00;8.05;;;5.15;;
26864;SDS011;40618;51.166;10.322;2022-07-29T15:11:39;5.35;;;2.22;;
26864;SDS011;40618;51.166;10.322;2022-07-29T15:14:17;5.97;;;2.40;;
26864;SDS011;40618;51.166;10.322;2022-07-29T15:16:55;2.47;;;1.63;;
26864;SDS011;40618;51.166;10.322;2022-07-29T15:19:33;3.67;;;1.92;;
26864;SDS011;40618;51.166;10.322;2022-07-29T15:22:11;1.52;;;1.42;;
26864;SDS011;40618;51.166;10.322;2022-07-29T15:24:50;3.50;;;2.20;;
26864;SDS011;40618;51.166;10.322;2022-07-29T15:27:28;4.45;;;2.15;;
26864;SDS011;40618;51.166;10.322;2022-07-29T15:30:06;3.80;;;1.90;;
26864;SDS011;40618;51.166;10.322;2022-07-29T15:32:45;3.47;;;2.20;;
26864;SDS011;40618;51.166;10.322;2022-07-29T15:35:24;4.68;;;1.83;;
26864;SDS011;40618;51.166;10.322;2022-07-29T15:38:02;5.18;;;2.15;;
26864;SDS011;40618;51.166;10.322;2022-07-29T15:40:40;3.92;;;2.17;;
26864;SDS011;40618;51.166;10.322;2022-07-29T15:43:20;3.97;;;2.38;;
26864;SDS011;40618;51.166;10.322;2022-07-29T15:45:58;3.67;;;2.05;;
26864;SDS011;40618;51.166;10.322;2022-07-29T15:48:55;3.50;;;2.03;;
26864;SDS011;40618;51.166;10.322;2022-07-29T15:51:34;5.93;;;1.63;;
26864;SDS011;40618;51.166;10.322;2022-07-29T15:54:12;3.30;;;1.63;;
26864;SDS011;40618;51.166;10.322;2022-07-29T15:56:50;2.17;;;1.67;;
26864;SDS011;40618;51.166;10.322;2022-07-29T15:59:28;5.50;;;2.00;;
26864;SDS011;40618;51.166;10.322;2022-07-29T16:02:07;2.95;;;1.48;;
26864;SDS011;40618;51.166;10.322;2022-07-29T16:04:45;3.90;;;1.65;;
26864;SDS011;40618;51.166;10.322;2022-07-29T16:07:23;4.55;;;1.45;;
26864;SDS011;40618;51.166;10.322;2022-07-29T16:10:08;2.30;;;1.70;;
26864;SDS011;40618;51.166;10.322;2022-07-29T16:12:46;2.13;;;1.45;;
26864;SDS011;40618;51.166;10.322;2022-07-29T16:15:24;2.17;;;1.55;;
26864;SDS011;40618;51.166;10.322;2022-07-29T16:18:02;2.97;;;1.75;;
26864;SDS011;40618;51.166;10.322;2022-07-29T16:20:41;2.70;;;2.13;;
26864;SDS011;40618;51.166;10.322;2022-07-29T16:23:19;2.58;;;1.50;;
26864;SDS011;40618;51.166;10.322;2022-07-29T16:25:57;4.65;;;2.03;;
26864;SDS011;40618;51.166;10.322;2022-07-29T16:28:37;2.03;;;1.50;;
26864;SDS011;40618;51.166;10.322;2022-07-29T16:31:15;4.75;;;1.75;;
26864;SDS011;40618;51.166;10.322;2022-07-29T16:33:54;4.35;;;1.75;;
26864;SDS011;40618;51.166;10.322;2022-07-29T16:36:32;2.35;;;1.85;;
26864;SDS011;40618;51.166;10.322;2022-07-29T16:39:11;4.45;;;2.00;;
26864;SDS011;40618;51.166;10.322;2022-07-29T16:41:49;2.10;;;1.58;;
26864;SDS011;40618;51.166;10.322;2022-07-29T16:44:27;2.65;;;1.58;;
26864;SDS011;40618;51.166;10.322;2022-07-29T16:47:05;2.15;;;1.38;;
26864;SDS011;40618;51.166;10.322;2022-07-29T16:49:45;3.75;;;1.60;;
26864;SDS011;40618;51.166;10.322;2022-07-29T16:52:23;5.70;;;2.83;;